sensor_id;sensor_type;location;lat;lon;timestamp;P1;durP1;ratioP1;P2;durP2;ratioP2
44925;SDS011;30662;51.210;7.656;2022-09-30T00:01:48;4.45;;;2.90;;
44925;SDS011;30662;51.210;7.656;2022-09-30T00:04:18;3.30;;;3.00;;
44925;SDS011;30662;51.210;7.656;2022-09-30T00:06:46;3.92;;;2.67;;
44925;SDS011;30662;51.210;7.656;2022-09-30T00:09:13;4.05;;;2.60;;
44925;SDS011;30662;51.210;7.656;2022-09-30T00:11:40;2.90;;;2.60;;
44925;SDS011;30662;51.210;7.656;2022-09-30T00:14:07;3.30;;;2.25;;
44925;SDS011;30662;51.210;7.656;2022-09-30T00:16:38;2.85;;;2.47;;
44925;SDS011;30662;51.210;7.656;2022-09-30T00:19:03;2.85;;;2.13;;
44925;SDS011;30662;51.210;7.656;2022-09-30T00:21:30;4.03;;;2.60;;
44925;SDS011;30662;51.210;7.656;2022-09-30T00:24:00;2.47;;;2.10;;
44925;SDS011;30662;51.210;7.656;2022-09-30T00:26:27;3.95;;;2.42;;
44925;SDS011;30662;51.210;7.656;2022-09-30T00:28:54;6.10;;;2.60;;
44925;SDS011;30662;51.210;7.656;2022-09-30T00:31:22;2.10;;;1.80;;
44925;SDS011;30662;51.210;7.656;2022-09-30T00:33:50;3.00;;;2.17;;
44925;SDS011;30662;51.210;7.656;2022-09-30T00:36:32;3.78;;;1.83;;
44925;SDS011;30662;51.210;7.656;2022-09-30T00:38:58;4.88;;;2.10;;
44925;SDS011;30662;51.210;7.656;2022-09-30T00:41:24;4.38;;;1.55;;
44925;SDS011;30662;51.210;7.656;2022-09-30T00:43:51;3.70;;;1.80;;
44925;SDS011;30662;51.210;7.656;2022-09-30T00:48:59;4.53;;;1.98;;
44925;SDS011;30662;51.210;7.656;2022-09-30T00:51:46;4.50;;;1.40;;
44925;SDS011;30662;51.210;7.656;2022-09-30T00:54:18;3.08;;;1.67;;
44925;SDS011;30662;51.210;7.656;2022-09-30T00:56:49;2.42;;;1.63;;
44925;SDS011;30662;51.210;7.656;2022-09-30T00:59:21;2.22;;;1.85;;
44925;SDS011;30662;51.210;7.656;2022-09-30T01:01:48;2.22;;;1.63;;
44925;SDS011;30662;51.210;7.656;2022-09-30T01:04:15;2.83;;;1.80;;
44925;SDS011;30662;51.210;7.656;2022-09-30T01:06:45;2.58;;;1.40;;
44925;SDS011;30662;51.210;7.656;2022-09-30T01:09:11;5.93;;;1.80;;
44925;SDS011;30662;51.210;7.656;2022-09-30T01:11:37;2.05;;;1.65;;
44925;SDS011;30662;51.210;7.656;2022-09-30T01:14:04;2.45;;;1.52;;
44925;SDS011;30662;51.210;7.656;2022-09-30T01:38:16;5.22;;;2.70;;
44925;SDS011;30662;51.210;7.656;2022-09-30T01:44:18;3.65;;;1.98;;
44925;SDS011;30662;51.210;7.656;2022-09-30T01:47:07;3.25;;;2.28;;
44925;SDS011;30662;51.210;7.656;2022-09-30T01:52:15;2.28;;;1.92;;
44925;SDS011;30662;51.210;7.656;2022-09-30T01:54:54;5.60;;;2.17;;
44925;SDS011;30662;51.210;7.656;2022-09-30T01:57:40;3.28;;;2.00;;
44925;SDS011;30662;51.210;7.656;2022-09-30T02:00:07;2.22;;;1.40;;
44925;SDS011;30662;51.210;7.656;2022-09-30T02:02:55;2.28;;;1.60;;
44925;SDS011;30662;51.210;7.656;2022-09-30T02:05:42;2.53;;;1.80;;
44925;SDS011;30662;51.210;7.656;2022-09-30T02:10:57;3.72;;;1.73;;
44925;SDS011;30662;51.210;7.656;2022-09-30T02:13:34;2.00;;;1.63;;
44925;SDS011;30662;51.210;7.656;2022-09-30T02:16:25;3.78;;;1.77;;
44925;SDS011;30662;51.210;7.656;2022-09-30T02:19:06;3.92;;;1.90;;
44925;SDS011;30662;51.210;7.656;2022-09-30T02:21:39;3.08;;;1.92;;
44925;SDS011;30662;51.210;7.656;2022-09-30T02:24:09;3.15;;;1.95;;
44925;SDS011;30662;51.210;7.656;2022-09-30T02:26:40;4.47;;;2.15;;
44925;SDS011;30662;51.210;7.656;2022-09-30T02:29:19;4.07;;;2.08;;
44925;SDS011;30662;51.210;7.656;2022-09-30T02:31:54;2.53;;;2.10;;
44925;SDS011;30662;51.210;7.656;2022-09-30T02:34:29;3.80;;;2.67;;
44925;SDS011;30662;51.210;7.656;2022-09-30T02:37:01;2.78;;;2.10;;
44925;SDS011;30662;51.210;7.656;2022-09-30T02:39:43;6.15;;;2.22;;
44925;SDS011;30662;51.210;7.656;2022-09-30T02:42:21;2.42;;;2.22;;
44925;SDS011;30662;51.210;7.656;2022-09-30T02:44:51;6.43;;;2.95;;
44925;SDS011;30662;51.210;7.656;2022-09-30T02:50:13;5.00;;;3.38;;
44925;SDS011;30662;51.210;7.656;2022-09-30T02:58:39;4.78;;;3.33;;
44925;SDS011;30662;51.210;7.656;2022-09-30T03:01:08;6.18;;;3.17;;
44925;SDS011;30662;51.210;7.656;2022-09-30T03:06:05;3.85;;;3.30;;
44925;SDS011;30662;51.210;7.656;2022-09-30T03:08:31;4.85;;;2.80;;
44925;SDS011;30662;51.210;7.656;2022-09-30T03:10:57;6.65;;;3.45;;
44925;SDS011;30662;51.210;7.656;2022-09-30T03:16:25;9.10;;;3.38;;
44925;SDS011;30662;51.210;7.656;2022-09-30T03:35:02;6.35;;;4.20;;
44925;SDS011;30662;51.210;7.656;2022-09-30T03:43:41;6.85;;;4.53;;
44925;SDS011;30662;51.210;7.656;2022-09-30T03:46:23;6.95;;;4.05;;
44925;SDS011;30662;51.210;7.656;2022-09-30T03:48:57;5.07;;;4.53;;
44925;SDS011;30662;51.210;7.656;2022-09-30T03:51:27;6.18;;;4.45;;
44925;SDS011;30662;51.210;7.656;2022-09-30T03:53:54;7.03;;;5.18;;
44925;SDS011;30662;51.210;7.656;2022-09-30T03:56:26;7.20;;;5.35;;
44925;SDS011;30662;51.210;7.656;2022-09-30T03:58:55;6.63;;;4.80;;
44925;SDS011;30662;51.210;7.656;2022-09-30T04:01:22;7.65;;;4.30;;
44925;SDS011;30662;51.210;7.656;2022-09-30T04:03:51;8.02;;;5.57;;
44925;SDS011;30662;51.210;7.656;2022-09-30T04:06:19;6.97;;;5.25;;
44925;SDS011;30662;51.210;7.656;2022-09-30T04:08:46;8.68;;;5.70;;
44925;SDS011;30662;51.210;7.656;2022-09-30T04:11:13;10.00;;;5.38;;
44925;SDS011;30662;51.210;7.656;2022-09-30T04:13:39;5.55;;;4.95;;
44925;SDS011;30662;51.210;7.656;2022-09-30T04:16:05;9.23;;;5.32;;
44925;SDS011;30662;51.210;7.656;2022-09-30T04:18:36;6.88;;;5.65;;
44925;SDS011;30662;51.210;7.656;2022-09-30T04:21:06;7.75;;;6.32;;
44925;SDS011;30662;51.210;7.656;2022-09-30T04:23:34;7.50;;;5.90;;
44925;SDS011;30662;51.210;7.656;2022-09-30T04:26:09;9.32;;;6.25;;
44925;SDS011;30662;51.210;7.656;2022-09-30T04:28:38;9.85;;;6.85;;
44925;SDS011;30662;51.210;7.656;2022-09-30T04:31:04;12.55;;;7.30;;
44925;SDS011;30662;51.210;7.656;2022-09-30T04:33:31;9.10;;;7.70;;
44925;SDS011;30662;51.210;7.656;2022-09-30T04:35:57;8.07;;;6.22;;
44925;SDS011;30662;51.210;7.656;2022-09-30T04:38:25;13.00;;;7.28;;
44925;SDS011;30662;51.210;7.656;2022-09-30T04:40:52;9.95;;;6.78;;
44925;SDS011;30662;51.210;7.656;2022-09-30T04:43:22;11.35;;;7.03;;
44925;SDS011;30662;51.210;7.656;2022-09-30T04:45:49;12.75;;;9.60;;
44925;SDS011;30662;51.210;7.656;2022-09-30T04:48:17;16.83;;;8.95;;
44925;SDS011;30662;51.210;7.656;2022-09-30T04:50:43;10.25;;;8.13;;
44925;SDS011;30662;51.210;7.656;2022-09-30T04:53:10;8.70;;;7.30;;
44925;SDS011;30662;51.210;7.656;2022-09-30T04:55:38;12.70;;;7.85;;
44925;SDS011;30662;51.210;7.656;2022-09-30T04:58:03;8.63;;;7.32;;
44925;SDS011;30662;51.210;7.656;2022-09-30T05:00:29;13.18;;;9.75;;
44925;SDS011;30662;51.210;7.656;2022-09-30T05:02:55;16.10;;;12.02;;
44925;SDS011;30662;51.210;7.656;2022-09-30T05:05:22;12.68;;;8.77;;
44925;SDS011;30662;51.210;7.656;2022-09-30T05:07:48;10.48;;;7.78;;
44925;SDS011;30662;51.210;7.656;2022-09-30T05:10:14;12.43;;;8.65;;
44925;SDS011;30662;51.210;7.656;2022-09-30T05:12:40;8.93;;;7.88;;
44925;SDS011;30662;51.210;7.656;2022-09-30T05:15:06;10.70;;;8.90;;
44925;SDS011;30662;51.210;7.656;2022-09-30T05:17:33;11.20;;;9.52;;
44925;SDS011;30662;51.210;7.656;2022-09-30T05:19:59;10.75;;;9.32;;
44925;SDS011;30662;51.210;7.656;2022-09-30T05:22:26;10.75;;;8.48;;
44925;SDS011;30662;51.210;7.656;2022-09-30T05:24:52;14.05;;;9.38;;
44925;SDS011;30662;51.210;7.656;2022-09-30T05:27:23;11.98;;;9.60;;
44925;SDS011;30662;51.210;7.656;2022-09-30T05:29:50;15.45;;;9.13;;
44925;SDS011;30662;51.210;7.656;2022-09-30T05:32:16;13.45;;;9.25;;
44925;SDS011;30662;51.210;7.656;2022-09-30T05:34:42;12.57;;;9.35;;
44925;SDS011;30662;51.210;7.656;2022-09-30T05:37:08;10.48;;;8.90;;
44925;SDS011;30662;51.210;7.656;2022-09-30T05:39:34;12.90;;;9.00;;
44925;SDS011;30662;51.210;7.656;2022-09-30T05:42:01;13.40;;;8.35;;
44925;SDS011;30662;51.210;7.656;2022-09-30T05:44:26;13.85;;;9.02;;
44925;SDS011;30662;51.210;7.656;2022-09-30T05:46:52;12.50;;;8.52;;
44925;SDS011;30662;51.210;7.656;2022-09-30T05:49:18;11.02;;;8.38;;
44925;SDS011;30662;51.210;7.656;2022-09-30T05:51:44;10.60;;;8.55;;
44925;SDS011;30662;51.210;7.656;2022-09-30T05:54:10;9.95;;;7.90;;
44925;SDS011;30662;51.210;7.656;2022-09-30T05:56:36;13.45;;;10.73;;
44925;SDS011;30662;51.210;7.656;2022-09-30T05:59:05;11.15;;;9.88;;
44925;SDS011;30662;51.210;7.656;2022-09-30T06:01:32;9.50;;;7.80;;
44925;SDS011;30662;51.210;7.656;2022-09-30T06:03:58;12.85;;;9.25;;
44925;SDS011;30662;51.210;7.656;2022-09-30T06:06:24;12.13;;;8.23;;
44925;SDS011;30662;51.210;7.656;2022-09-30T06:08:50;10.32;;;8.13;;
44925;SDS011;30662;51.210;7.656;2022-09-30T06:11:17;14.55;;;8.68;;
44925;SDS011;30662;51.210;7.656;2022-09-30T06:13:45;10.35;;;8.13;;
44925;SDS011;30662;51.210;7.656;2022-09-30T06:16:12;9.00;;;7.72;;
44925;SDS011;30662;51.210;7.656;2022-09-30T06:18:39;15.60;;;8.90;;
44925;SDS011;30662;51.210;7.656;2022-09-30T06:21:06;10.55;;;8.25;;
44925;SDS011;30662;51.210;7.656;2022-09-30T06:23:33;10.70;;;8.82;;
44925;SDS011;30662;51.210;7.656;2022-09-30T06:26:00;12.60;;;8.80;;
44925;SDS011;30662;51.210;7.656;2022-09-30T06:28:27;12.02;;;10.50;;
44925;SDS011;30662;51.210;7.656;2022-09-30T06:30:53;11.18;;;9.73;;
44925;SDS011;30662;51.210;7.656;2022-09-30T06:33:19;13.57;;;9.10;;
44925;SDS011;30662;51.210;7.656;2022-09-30T06:35:46;14.48;;;9.55;;
44925;SDS011;30662;51.210;7.656;2022-09-30T06:38:13;12.45;;;9.02;;
44925;SDS011;30662;51.210;7.656;2022-09-30T06:40:42;13.55;;;10.00;;
44925;SDS011;30662;51.210;7.656;2022-09-30T06:43:09;12.73;;;9.68;;
44925;SDS011;30662;51.210;7.656;2022-09-30T06:45:36;14.15;;;10.43;;
44925;SDS011;30662;51.210;7.656;2022-09-30T06:48:03;13.30;;;9.93;;
44925;SDS011;30662;51.210;7.656;2022-09-30T06:50:30;15.63;;;9.25;;
44925;SDS011;30662;51.210;7.656;2022-09-30T06:53:00;14.05;;;10.25;;
44925;SDS011;30662;51.210;7.656;2022-09-30T06:55:28;13.10;;;9.90;;
44925;SDS011;30662;51.210;7.656;2022-09-30T06:57:55;12.63;;;9.90;;
44925;SDS011;30662;51.210;7.656;2022-09-30T07:00:22;12.98;;;9.80;;
44925;SDS011;30662;51.210;7.656;2022-09-30T07:02:48;16.42;;;9.43;;
44925;SDS011;30662;51.210;7.656;2022-09-30T07:05:15;14.10;;;10.32;;
44925;SDS011;30662;51.210;7.656;2022-09-30T07:07:41;20.40;;;11.68;;
44925;SDS011;30662;51.210;7.656;2022-09-30T07:10:08;16.33;;;11.77;;
44925;SDS011;30662;51.210;7.656;2022-09-30T07:12:34;14.93;;;9.95;;
44925;SDS011;30662;51.210;7.656;2022-09-30T07:15:00;10.90;;;8.88;;
44925;SDS011;30662;51.210;7.656;2022-09-30T07:17:26;13.80;;;9.73;;
44925;SDS011;30662;51.210;7.656;2022-09-30T07:19:53;13.98;;;10.40;;
44925;SDS011;30662;51.210;7.656;2022-09-30T07:22:20;12.25;;;8.63;;
44925;SDS011;30662;51.210;7.656;2022-09-30T07:24:53;10.35;;;8.65;;
44925;SDS011;30662;51.210;7.656;2022-09-30T07:27:19;10.55;;;7.40;;
44925;SDS011;30662;51.210;7.656;2022-09-30T07:29:46;8.65;;;7.10;;
44925;SDS011;30662;51.210;7.656;2022-09-30T07:32:32;9.02;;;6.47;;
44925;SDS011;30662;51.210;7.656;2022-09-30T07:34:58;11.00;;;6.93;;
44925;SDS011;30662;51.210;7.656;2022-09-30T07:37:24;7.10;;;6.38;;
44925;SDS011;30662;51.210;7.656;2022-09-30T07:39:51;7.32;;;6.38;;
44925;SDS011;30662;51.210;7.656;2022-09-30T07:42:17;10.55;;;6.28;;
44925;SDS011;30662;51.210;7.656;2022-09-30T07:44:49;10.35;;;6.88;;
44925;SDS011;30662;51.210;7.656;2022-09-30T07:47:17;8.95;;;6.10;;
44925;SDS011;30662;51.210;7.656;2022-09-30T07:49:44;9.20;;;6.55;;
44925;SDS011;30662;51.210;7.656;2022-09-30T07:52:10;7.60;;;6.07;;
44925;SDS011;30662;51.210;7.656;2022-09-30T07:54:37;7.13;;;5.60;;
44925;SDS011;30662;51.210;7.656;2022-09-30T07:57:09;9.30;;;6.03;;
44925;SDS011;30662;51.210;7.656;2022-09-30T07:59:38;7.47;;;5.65;;
44925;SDS011;30662;51.210;7.656;2022-09-30T08:02:06;9.77;;;5.50;;
44925;SDS011;30662;51.210;7.656;2022-09-30T08:04:35;7.88;;;6.13;;
44925;SDS011;30662;51.210;7.656;2022-09-30T08:07:06;7.13;;;6.13;;
44925;SDS011;30662;51.210;7.656;2022-09-30T08:09:33;7.72;;;5.70;;
44925;SDS011;30662;51.210;7.656;2022-09-30T08:12:01;6.55;;;4.95;;
44925;SDS011;30662;51.210;7.656;2022-09-30T08:14:28;6.93;;;5.32;;
44925;SDS011;30662;51.210;7.656;2022-09-30T08:16:54;7.13;;;5.65;;
44925;SDS011;30662;51.210;7.656;2022-09-30T08:19:23;7.47;;;5.93;;
44925;SDS011;30662;51.210;7.656;2022-09-30T08:21:49;10.18;;;6.18;;
44925;SDS011;30662;51.210;7.656;2022-09-30T08:24:18;10.20;;;5.40;;
44925;SDS011;30662;51.210;7.656;2022-09-30T08:26:44;8.38;;;5.05;;
44925;SDS011;30662;51.210;7.656;2022-09-30T08:29:10;17.98;;;6.63;;
44925;SDS011;30662;51.210;7.656;2022-09-30T08:34:12;8.35;;;5.25;;
44925;SDS011;30662;51.210;7.656;2022-09-30T08:36:37;7.38;;;5.15;;
44925;SDS011;30662;51.210;7.656;2022-09-30T08:39:04;8.43;;;5.85;;
44925;SDS011;30662;51.210;7.656;2022-09-30T08:49:53;10.07;;;6.97;;
44925;SDS011;30662;51.210;7.656;2022-09-30T08:52:27;10.67;;;6.93;;
44925;SDS011;30662;51.210;7.656;2022-09-30T08:55:18;6.82;;;5.47;;
44925;SDS011;30662;51.210;7.656;2022-09-30T08:57:47;8.18;;;6.25;;
44925;SDS011;30662;51.210;7.656;2022-09-30T09:00:15;6.18;;;5.18;;
44925;SDS011;30662;51.210;7.656;2022-09-30T09:02:43;8.18;;;5.35;;
44925;SDS011;30662;51.210;7.656;2022-09-30T09:05:19;8.60;;;4.95;;
44925;SDS011;30662;51.210;7.656;2022-09-30T09:08:01;14.18;;;6.22;;
44925;SDS011;30662;51.210;7.656;2022-09-30T09:10:44;6.90;;;5.30;;
44925;SDS011;30662;51.210;7.656;2022-09-30T09:13:24;7.22;;;6.13;;
44925;SDS011;30662;51.210;7.656;2022-09-30T09:16:19;8.33;;;5.93;;
44925;SDS011;30662;51.210;7.656;2022-09-30T09:19:07;7.45;;;5.55;;
44925;SDS011;30662;51.210;7.656;2022-09-30T09:24:28;8.07;;;5.30;;
44925;SDS011;30662;51.210;7.656;2022-09-30T09:27:00;8.05;;;5.43;;
44925;SDS011;30662;51.210;7.656;2022-09-30T09:32:31;10.85;;;5.53;;
44925;SDS011;30662;51.210;7.656;2022-09-30T09:35:00;8.98;;;5.45;;
44925;SDS011;30662;51.210;7.656;2022-09-30T09:37:46;8.00;;;5.18;;
44925;SDS011;30662;51.210;7.656;2022-09-30T09:43:55;7.85;;;5.55;;
44925;SDS011;30662;51.210;7.656;2022-09-30T09:46:44;6.60;;;4.75;;
44925;SDS011;30662;51.210;7.656;2022-09-30T09:54:23;6.90;;;3.90;;
44925;SDS011;30662;51.210;7.656;2022-09-30T09:56:55;5.30;;;4.25;;
44925;SDS011;30662;51.210;7.656;2022-09-30T09:59:31;9.32;;;4.70;;
44925;SDS011;30662;51.210;7.656;2022-09-30T10:01:57;6.30;;;3.95;;
44925;SDS011;30662;51.210;7.656;2022-09-30T10:04:25;5.38;;;4.03;;
44925;SDS011;30662;51.210;7.656;2022-09-30T10:07:01;5.15;;;3.65;;
44925;SDS011;30662;51.210;7.656;2022-09-30T10:09:39;7.50;;;4.50;;
44925;SDS011;30662;51.210;7.656;2022-09-30T10:14:39;6.35;;;4.30;;
44925;SDS011;30662;51.210;7.656;2022-09-30T10:17:33;7.50;;;3.92;;
44925;SDS011;30662;51.210;7.656;2022-09-30T10:20:25;5.80;;;4.20;;
44925;SDS011;30662;51.210;7.656;2022-09-30T10:25:57;5.45;;;3.40;;
44925;SDS011;30662;51.210;7.656;2022-09-30T10:28:25;8.82;;;4.20;;
44925;SDS011;30662;51.210;7.656;2022-09-30T10:33:25;6.50;;;4.35;;
44925;SDS011;30662;51.210;7.656;2022-09-30T10:38:30;6.80;;;4.30;;
44925;SDS011;30662;51.210;7.656;2022-09-30T10:40:59;7.70;;;4.72;;
44925;SDS011;30662;51.210;7.656;2022-09-30T10:43:28;5.10;;;4.57;;
44925;SDS011;30662;51.210;7.656;2022-09-30T10:45:58;5.40;;;4.10;;
44925;SDS011;30662;51.210;7.656;2022-09-30T10:48:48;7.05;;;4.30;;
44925;SDS011;30662;51.210;7.656;2022-09-30T10:51:25;10.75;;;4.57;;
44925;SDS011;30662;51.210;7.656;2022-09-30T10:53:55;7.10;;;4.30;;
44925;SDS011;30662;51.210;7.656;2022-09-30T10:56:35;8.25;;;3.60;;
44925;SDS011;30662;51.210;7.656;2022-09-30T10:59:02;3.58;;;2.80;;
44925;SDS011;30662;51.210;7.656;2022-09-30T11:01:31;4.53;;;3.00;;
44925;SDS011;30662;51.210;7.656;2022-09-30T11:06:36;5.80;;;2.70;;
44925;SDS011;30662;51.210;7.656;2022-09-30T11:09:11;5.70;;;2.53;;
44925;SDS011;30662;51.210;7.656;2022-09-30T11:11:52;3.42;;;2.47;;
44925;SDS011;30662;51.210;7.656;2022-09-30T11:14:43;3.33;;;2.75;;
44925;SDS011;30662;51.210;7.656;2022-09-30T11:19:54;3.78;;;2.60;;
44925;SDS011;30662;51.210;7.656;2022-09-30T11:22:56;3.42;;;2.75;;
44925;SDS011;30662;51.210;7.656;2022-09-30T11:25:31;9.27;;;2.67;;
44925;SDS011;30662;51.210;7.656;2022-09-30T11:33:39;4.88;;;2.47;;
44925;SDS011;30662;51.210;7.656;2022-09-30T11:41:50;4.43;;;2.70;;
44925;SDS011;30662;51.210;7.656;2022-09-30T11:50:01;3.20;;;2.03;;
44925;SDS011;30662;51.210;7.656;2022-09-30T11:58:12;4.45;;;1.98;;
44925;SDS011;30662;51.210;7.656;2022-09-30T12:12:22;4.80;;;2.35;;
44925;SDS011;30662;51.210;7.656;2022-09-30T12:18:00;2.78;;;1.63;;
44925;SDS011;30662;51.210;7.656;2022-09-30T12:20:15;2.58;;;1.40;;
44925;SDS011;30662;51.210;7.656;2022-09-30T12:22:45;2.78;;;1.45;;
44925;SDS011;30662;51.210;7.656;2022-09-30T12:25:20;5.38;;;1.15;;
44925;SDS011;30662;51.210;7.656;2022-09-30T12:28:01;2.80;;;1.30;;
44925;SDS011;30662;51.210;7.656;2022-09-30T12:30:59;2.45;;;1.27;;
44925;SDS011;30662;51.210;7.656;2022-09-30T12:33:38;2.75;;;0.90;;
44925;SDS011;30662;51.210;7.656;2022-09-30T12:37:04;1.55;;;1.00;;
44925;SDS011;30662;51.210;7.656;2022-09-30T12:47:58;1.40;;;0.60;;
44925;SDS011;30662;51.210;7.656;2022-09-30T12:50:29;1.45;;;0.65;;
44925;SDS011;30662;51.210;7.656;2022-09-30T12:53:07;1.52;;;0.70;;
44925;SDS011;30662;51.210;7.656;2022-09-30T12:55:46;2.60;;;0.70;;
44925;SDS011;30662;51.210;7.656;2022-09-30T12:58:23;1.30;;;0.60;;
44925;SDS011;30662;51.210;7.656;2022-09-30T13:01:07;1.08;;;0.57;;
44925;SDS011;30662;51.210;7.656;2022-09-30T13:03:45;1.15;;;0.60;;
44925;SDS011;30662;51.210;7.656;2022-09-30T13:09:21;3.13;;;0.95;;
44925;SDS011;30662;51.210;7.656;2022-09-30T13:14:39;2.53;;;0.65;;
44925;SDS011;30662;51.210;7.656;2022-09-30T13:19:35;3.78;;;1.15;;
44925;SDS011;30662;51.210;7.656;2022-09-30T13:32:40;2.33;;;0.88;;
44925;SDS011;30662;51.210;7.656;2022-09-30T13:40:47;2.17;;;0.65;;
44925;SDS011;30662;51.210;7.656;2022-09-30T13:46:11;2.45;;;1.08;;
44925;SDS011;30662;51.210;7.656;2022-09-30T13:48:53;1.77;;;0.87;;
44925;SDS011;30662;51.210;7.656;2022-09-30T13:51:54;1.27;;;0.63;;
44925;SDS011;30662;51.210;7.656;2022-09-30T13:54:28;1.63;;;1.13;;
44925;SDS011;30662;51.210;7.656;2022-09-30T13:57:02;1.00;;;0.90;;
44925;SDS011;30662;51.210;7.656;2022-09-30T14:00:17;1.75;;;0.80;;
44925;SDS011;30662;51.210;7.656;2022-09-30T14:05:48;1.50;;;1.23;;
44925;SDS011;30662;51.210;7.656;2022-09-30T14:08:33;2.53;;;0.80;;
44925;SDS011;30662;51.210;7.656;2022-09-30T14:11:32;2.45;;;0.80;;
44925;SDS011;30662;51.210;7.656;2022-09-30T14:19:20;1.48;;;0.90;;
44925;SDS011;30662;51.210;7.656;2022-09-30T14:22:10;1.65;;;0.80;;
44925;SDS011;30662;51.210;7.656;2022-09-30T14:24:36;1.83;;;0.82;;
44925;SDS011;30662;51.210;7.656;2022-09-30T14:32:27;1.58;;;0.90;;
44925;SDS011;30662;51.210;7.656;2022-09-30T14:34:55;3.22;;;0.70;;
44925;SDS011;30662;51.210;7.656;2022-09-30T14:39:55;3.53;;;1.20;;
44925;SDS011;30662;51.210;7.656;2022-09-30T14:42:31;2.45;;;0.90;;
44925;SDS011;30662;51.210;7.656;2022-09-30T14:45:00;2.40;;;0.73;;
44925;SDS011;30662;51.210;7.656;2022-09-30T14:47:37;2.20;;;0.90;;
44925;SDS011;30662;51.210;7.656;2022-09-30T14:50:09;0.93;;;0.77;;
44925;SDS011;30662;51.210;7.656;2022-09-30T15:01:02;2.88;;;1.67;;
44925;SDS011;30662;51.210;7.656;2022-09-30T15:03:35;2.60;;;1.40;;
44925;SDS011;30662;51.210;7.656;2022-09-30T15:06:04;2.30;;;0.70;;
44925;SDS011;30662;51.210;7.656;2022-09-30T15:08:40;1.75;;;0.90;;
44925;SDS011;30662;51.210;7.656;2022-09-30T15:11:06;2.97;;;0.90;;
44925;SDS011;30662;51.210;7.656;2022-09-30T15:13:32;2.90;;;0.95;;
44925;SDS011;30662;51.210;7.656;2022-09-30T15:15:59;2.45;;;0.70;;
44925;SDS011;30662;51.210;7.656;2022-09-30T15:18:32;2.00;;;0.82;;
44925;SDS011;30662;51.210;7.656;2022-09-30T15:21:11;2.15;;;0.90;;
44925;SDS011;30662;51.210;7.656;2022-09-30T15:23:44;1.38;;;0.90;;
44925;SDS011;30662;51.210;7.656;2022-09-30T15:26:17;3.55;;;1.02;;
44925;SDS011;30662;51.210;7.656;2022-09-30T15:28:45;2.50;;;0.75;;
44925;SDS011;30662;51.210;7.656;2022-09-30T15:31:28;1.85;;;0.60;;
44925;SDS011;30662;51.210;7.656;2022-09-30T15:34:03;4.72;;;0.52;;
44925;SDS011;30662;51.210;7.656;2022-09-30T15:36:38;3.25;;;0.80;;
44925;SDS011;30662;51.210;7.656;2022-09-30T15:39:06;4.13;;;0.88;;
44925;SDS011;30662;51.210;7.656;2022-09-30T15:42:13;4.25;;;0.90;;
44925;SDS011;30662;51.210;7.656;2022-09-30T15:44:52;2.08;;;0.98;;
44925;SDS011;30662;51.210;7.656;2022-09-30T15:47:17;2.80;;;1.20;;
44925;SDS011;30662;51.210;7.656;2022-09-30T15:49:45;1.23;;;1.02;;
44925;SDS011;30662;51.210;7.656;2022-09-30T15:52:34;3.15;;;0.90;;
44925;SDS011;30662;51.210;7.656;2022-09-30T15:57:59;4.22;;;1.27;;
44925;SDS011;30662;51.210;7.656;2022-09-30T16:00:31;1.33;;;0.93;;
44925;SDS011;30662;51.210;7.656;2022-09-30T16:06:04;4.25;;;1.27;;
44925;SDS011;30662;51.210;7.656;2022-09-30T16:08:40;1.92;;;1.00;;
44925;SDS011;30662;51.210;7.656;2022-09-30T16:11:18;3.60;;;1.48;;
44925;SDS011;30662;51.210;7.656;2022-09-30T16:13:50;1.60;;;1.17;;
44925;SDS011;30662;51.210;7.656;2022-09-30T16:16:18;2.33;;;1.27;;
44925;SDS011;30662;51.210;7.656;2022-09-30T16:18:46;3.42;;;1.50;;
44925;SDS011;30662;51.210;7.656;2022-09-30T16:24:57;4.43;;;1.60;;
44925;SDS011;30662;51.210;7.656;2022-09-30T16:27:00;3.28;;;1.25;;
44925;SDS011;30662;51.210;7.656;2022-09-30T16:29:44;3.55;;;1.27;;
44925;SDS011;30662;51.210;7.656;2022-09-30T16:32:11;2.13;;;1.17;;
44925;SDS011;30662;51.210;7.656;2022-09-30T16:34:38;2.22;;;1.00;;
44925;SDS011;30662;51.210;7.656;2022-09-30T16:37:11;3.38;;;1.30;;
44925;SDS011;30662;51.210;7.656;2022-09-30T16:39:39;3.22;;;1.20;;
44925;SDS011;30662;51.210;7.656;2022-09-30T16:42:05;2.70;;;0.88;;
44925;SDS011;30662;51.210;7.656;2022-09-30T16:44:36;3.03;;;1.17;;
44925;SDS011;30662;51.210;7.656;2022-09-30T16:47:02;2.22;;;1.55;;
44925;SDS011;30662;51.210;7.656;2022-09-30T16:49:28;2.13;;;1.20;;
44925;SDS011;30662;51.210;7.656;2022-09-30T16:51:54;2.08;;;1.00;;
44925;SDS011;30662;51.210;7.656;2022-09-30T16:54:21;4.00;;;1.70;;
44925;SDS011;30662;51.210;7.656;2022-09-30T16:56:47;3.38;;;1.80;;
44925;SDS011;30662;51.210;7.656;2022-09-30T16:59:14;5.55;;;1.40;;
44925;SDS011;30662;51.210;7.656;2022-09-30T17:01:42;4.70;;;2.33;;
44925;SDS011;30662;51.210;7.656;2022-09-30T17:04:08;2.83;;;1.67;;
44925;SDS011;30662;51.210;7.656;2022-09-30T17:06:40;3.15;;;1.50;;
44925;SDS011;30662;51.210;7.656;2022-09-30T17:09:06;5.75;;;1.70;;
44925;SDS011;30662;51.210;7.656;2022-09-30T17:11:33;3.30;;;1.70;;
44925;SDS011;30662;51.210;7.656;2022-09-30T17:14:00;2.90;;;1.65;;
44925;SDS011;30662;51.210;7.656;2022-09-30T17:16:27;2.38;;;1.80;;
44925;SDS011;30662;51.210;7.656;2022-09-30T17:18:53;9.43;;;2.05;;
44925;SDS011;30662;51.210;7.656;2022-09-30T17:21:21;6.00;;;3.35;;
44925;SDS011;30662;51.210;7.656;2022-09-30T17:23:48;5.35;;;2.35;;
44925;SDS011;30662;51.210;7.656;2022-09-30T17:26:15;6.07;;;2.10;;
44925;SDS011;30662;51.210;7.656;2022-09-30T17:28:41;2.55;;;1.80;;
44925;SDS011;30662;51.210;7.656;2022-09-30T17:31:07;3.95;;;1.48;;
44925;SDS011;30662;51.210;7.656;2022-09-30T17:33:37;2.13;;;1.50;;
44925;SDS011;30662;51.210;7.656;2022-09-30T17:36:08;4.03;;;1.60;;
44925;SDS011;30662;51.210;7.656;2022-09-30T17:38:36;5.03;;;1.92;;
44925;SDS011;30662;51.210;7.656;2022-09-30T17:41:03;6.97;;;2.15;;
44925;SDS011;30662;51.210;7.656;2022-09-30T17:43:48;3.28;;;1.85;;
44925;SDS011;30662;51.210;7.656;2022-09-30T17:46:16;4.43;;;1.98;;
44925;SDS011;30662;51.210;7.656;2022-09-30T17:48:45;4.55;;;1.35;;
44925;SDS011;30662;51.210;7.656;2022-09-30T17:51:12;5.10;;;1.70;;
44925;SDS011;30662;51.210;7.656;2022-09-30T17:53:41;2.45;;;1.48;;
44925;SDS011;30662;51.210;7.656;2022-09-30T17:56:14;3.42;;;1.55;;
44925;SDS011;30662;51.210;7.656;2022-09-30T17:58:43;7.18;;;2.05;;
44925;SDS011;30662;51.210;7.656;2022-09-30T18:01:13;5.03;;;1.95;;
44925;SDS011;30662;51.210;7.656;2022-09-30T18:03:40;3.40;;;1.73;;
44925;SDS011;30662;51.210;7.656;2022-09-30T18:06:07;3.83;;;1.92;;
44925;SDS011;30662;51.210;7.656;2022-09-30T18:08:33;3.60;;;1.77;;
44925;SDS011;30662;51.210;7.656;2022-09-30T18:10:59;2.55;;;1.55;;
44925;SDS011;30662;51.210;7.656;2022-09-30T18:13:26;1.45;;;1.30;;
44925;SDS011;30662;51.210;7.656;2022-09-30T18:15:53;1.98;;;1.42;;
44925;SDS011;30662;51.210;7.656;2022-09-30T18:18:20;3.53;;;1.52;;
44925;SDS011;30662;51.210;7.656;2022-09-30T18:20:47;2.78;;;1.45;;
44925;SDS011;30662;51.210;7.656;2022-09-30T18:23:15;6.38;;;1.80;;
44925;SDS011;30662;51.210;7.656;2022-09-30T18:25:43;2.80;;;1.60;;
44925;SDS011;30662;51.210;7.656;2022-09-30T18:28:14;5.95;;;1.20;;
44925;SDS011;30662;51.210;7.656;2022-09-30T18:30:41;2.72;;;1.38;;
44925;SDS011;30662;51.210;7.656;2022-09-30T18:33:08;5.40;;;1.48;;
44925;SDS011;30662;51.210;7.656;2022-09-30T18:35:36;3.50;;;1.27;;
44925;SDS011;30662;51.210;7.656;2022-09-30T18:38:04;3.28;;;1.20;;
44925;SDS011;30662;51.210;7.656;2022-09-30T18:40:31;3.28;;;1.48;;
44925;SDS011;30662;51.210;7.656;2022-09-30T18:42:59;3.10;;;1.08;;
44925;SDS011;30662;51.210;7.656;2022-09-30T18:45:27;2.50;;;1.42;;
44925;SDS011;30662;51.210;7.656;2022-09-30T18:47:56;2.85;;;1.80;;